Time;durP1;ratioP1;P1;durP2;ratioP2;P2;SDS_P1;SDS_P2;PMS_P1;PMS_P2;Temp;Humidity;BMP_temperature;BMP_pressure;BME280_temperature;BME280_humidity;BME280_pressure;Samples;Min_cycle;Max_cycle;Signal;HPM_P1;HPM_P2
2023/05/23 00:02:17;;;;;;;20.65;8.32;;;13.40;99.90;;;;;;5038750;28;20404;-76
2023/05/23 00:04:46;;;;;;;22.65;8.40;;;13.40;99.90;;;;;;5035731;28;20067;-76
2023/05/23 00:07:11;;;;;;;21.17;7.82;;;13.40;99.90;;;;;;5020390;28;20488;-76
2023/05/23 00:09:37;;;;;;;20.65;7.90;;;13.40;99.90;;;;;;5033770;28;20049;-75
2023/05/23 00:12:03;;;;;;;22.42;8.02;;;13.40;99.90;;;;;;5037565;28;20049;-75
2023/05/23 00:14:32;;;;;;;19.58;8.07;;;13.40;99.90;;;;;;5035343;28;20426;-75
2023/05/23 00:16:59;;;;;;;23.08;8.13;;;13.40;99.90;;;;;;5032012;28;20045;-75
2023/05/23 00:19:25;;;;;;;20.40;6.82;;;13.40;99.90;;;;;;5021200;28;20441;-75
2023/05/23 00:21:55;;;;;;;22.13;7.00;;;13.40;99.90;;;;;;5038548;28;20045;-77
2023/05/23 00:24:22;;;;;;;19.08;6.55;;;13.40;99.90;;;;;;5038537;28;20053;-75
2023/05/23 00:26:48;;;;;;;25.13;7.80;;;13.40;99.90;;;;;;5037770;28;20131;-76
2023/05/23 00:29:17;;;;;;;18.00;6.53;;;13.50;99.90;;;;;;5056516;28;20190;-74
2023/05/23 00:31:46;;;;;;;21.85;8.32;;;13.40;99.90;;;;;;5039650;28;20407;-75
2023/05/23 00:34:18;;;;;;;17.85;7.15;;;13.40;99.90;;;;;;5034813;28;20626;-77
2023/05/23 00:36:46;;;;;;;15.35;6.70;;;13.40;99.90;;;;;;5039229;28;20083;-75
2023/05/23 00:39:18;;;;;;;14.05;6.60;;;13.40;99.90;;;;;;5037506;28;20092;-76
2023/05/23 00:41:49;;;;;;;15.48;7.32;;;13.40;99.90;;;;;;5018361;28;20048;-75
2023/05/23 00:44:14;;;;;;;14.65;6.57;;;13.50;99.90;;;;;;5058777;28;20870;-75
2023/05/23 00:46:45;;;;;;;23.77;7.55;;;13.40;99.90;;;;;;5009261;28;20053;-75
2023/05/23 00:49:11;;;;;;;19.45;7.25;;;13.40;99.90;;;;;;5025133;28;20123;-75
2023/05/23 00:51:37;;;;;;;19.02;6.80;;;13.40;99.90;;;;;;5039166;28;20048;-75
2023/05/23 00:54:04;;;;;;;24.55;7.30;;;13.40;99.90;;;;;;5041700;28;20048;-75
2023/05/23 00:56:30;;;;;;;19.90;7.20;;;13.40;99.90;;;;;;5042638;28;20515;-75
2023/05/23 00:58:59;;;;;;;18.30;6.82;;;13.40;99.90;;;;;;5058156;28;20060;-77
2023/05/23 01:01:26;;;;;;;15.75;7.43;;;13.40;99.90;;;;;;5025500;28;20496;-75
2023/05/23 01:03:52;;;;;;;16.60;7.00;;;13.40;99.90;;;;;;5008018;28;20052;-76
2023/05/23 01:06:19;;;;;;;18.90;7.22;;;13.40;99.90;;;;;;5041636;28;20411;-76
2023/05/23 01:08:44;;;;;;;19.73;7.13;;;13.40;99.90;;;;;;5023850;28;20327;-77
2023/05/23 01:11:20;;;;;;;14.82;6.82;;;13.40;99.90;;;;;;5040337;28;20470;-75
2023/05/23 01:14:06;;;;;;;17.00;6.68;;;13.40;99.90;;;;;;5040716;28;20498;-77
2023/05/23 01:16:40;;;;;;;22.42;6.70;;;13.40;99.90;;;;;;5041436;28;20052;-77
2023/05/23 01:19:45;;;;;;;17.33;7.35;;;13.40;99.90;;;;;;5041971;28;20120;-76
2023/05/23 01:22:38;;;;;;;22.33;6.82;;;13.40;99.90;;;;;;5039402;28;20067;-76
2023/05/23 01:25:29;;;;;;;17.23;7.05;;;13.40;99.90;;;;;;5023316;28;20045;-75
2023/05/23 01:27:57;;;;;;;13.57;6.63;;;13.40;99.90;;;;;;5058787;28;20132;-75
2023/05/23 01:30:25;;;;;;;20.20;7.03;;;13.40;99.90;;;;;;5039136;28;20056;-78
2023/05/23 01:32:55;;;;;;;20.60;7.43;;;13.40;99.90;;;;;;5020756;28;20060;-75
2023/05/23 01:35:26;;;;;;;20.50;6.93;;;13.40;99.90;;;;;;5055975;28;20083;-76
2023/05/23 01:37:58;;;;;;;19.15;7.25;;;13.40;99.90;;;;;;5025333;28;20071;-75
2023/05/23 01:40:25;;;;;;;22.73;6.93;;;13.30;99.90;;;;;;5015090;28;20495;-76
2023/05/23 01:42:54;;;;;;;17.98;7.25;;;13.30;99.90;;;;;;5041318;28;20552;-74
2023/05/23 01:45:21;;;;;;;19.15;6.60;;;13.20;99.90;;;;;;5008669;28;20459;-75
2023/05/23 01:47:50;;;;;;;15.10;6.60;;;13.20;99.90;;;;;;5042361;28;20064;-75
2023/05/23 01:50:16;;;;;;;17.95;6.35;;;13.20;99.90;;;;;;5024241;28;20072;-74
2023/05/23 01:52:43;;;;;;;22.80;6.32;;;13.20;99.90;;;;;;5041493;28;20045;-77
2023/05/23 01:55:10;;;;;;;19.25;5.63;;;13.20;99.90;;;;;;5040059;28;20052;-76
2023/05/23 01:57:47;;;;;;;15.85;5.70;;;13.10;99.90;;;;;;5011142;28;20040;-76
2023/05/23 02:00:14;;;;;;;16.13;5.82;;;13.10;99.90;;;;;;5024340;28;20478;-74
2023/05/23 02:02:40;;;;;;;21.65;6.00;;;13.10;99.90;;;;;;5055429;28;20068;-74
2023/05/23 02:05:06;;;;;;;22.40;5.68;;;13.10;99.90;;;;;;5051881;28;20041;-75
2023/05/23 02:07:32;;;;;;;19.48;5.90;;;13.10;99.90;;;;;;5021215;28;20033;-75
2023/05/23 02:09:58;;;;;;;16.70;6.28;;;13.10;99.90;;;;;;4987855;28;20056;-76
2023/05/23 02:12:23;;;;;;;13.73;5.32;;;13.10;99.90;;;;;;5057922;28;20041;-75
2023/05/23 02:14:51;;;;;;;20.98;6.22;;;13.10;99.90;;;;;;5023052;28;20144;-75
2023/05/23 02:17:17;;;;;;;11.73;4.20;;;13.10;99.90;;;;;;5041961;28;20106;-75
2023/05/23 02:19:46;;;;;;;15.20;4.72;;;13.00;99.90;;;;;;5054520;28;20076;-78
2023/05/23 02:22:12;;;;;;;13.35;4.55;;;13.00;99.90;;;;;;5024384;28;20805;-75
2023/05/23 02:24:38;;;;;;;12.07;4.45;;;13.00;99.90;;;;;;5040878;28;20055;-75
2023/05/23 02:27:07;;;;;;;11.75;4.15;;;12.90;99.90;;;;;;5040794;28;20083;-75
2023/05/23 02:29:33;;;;;;;13.93;4.20;;;13.00;99.90;;;;;;5039717;28;20053;-77
2023/05/23 02:32:00;;;;;;;13.85;4.35;;;13.00;99.90;;;;;;5023885;28;20082;-74
2023/05/23 02:34:25;;;;;;;14.50;3.95;;;12.90;99.90;;;;;;5058581;28;20483;-77
2023/05/23 02:36:51;;;;;;;18.42;4.88;;;12.90;99.90;;;;;;5038606;28;20055;-75
2023/05/23 02:39:17;;;;;;;13.57;4.30;;;12.90;99.90;;;;;;5022970;28;20617;-75
2023/05/23 02:41:43;;;;;;;15.05;3.75;;;12.90;99.90;;;;;;5021711;28;20049;-78
2023/05/23 02:44:09;;;;;;;15.00;4.43;;;12.90;99.90;;;;;;5041097;28;20441;-76
2023/05/23 02:46:34;;;;;;;8.30;3.70;;;12.90;99.90;;;;;;5039349;28;20044;-75
2023/05/23 02:49:00;;;;;;;13.45;4.00;;;12.80;99.90;;;;;;5056645;28;20041;-74
2023/05/23 02:51:26;;;;;;;11.38;3.80;;;12.80;99.90;;;;;;5022996;28;20068;-74
2023/05/23 02:53:51;;;;;;;13.00;4.40;;;12.80;99.90;;;;;;5041099;28;20178;-76
2023/05/23 02:56:17;;;;;;;10.10;4.47;;;12.80;99.90;;;;;;5023085;28;20617;-78
2023/05/23 02:58:43;;;;;;;8.88;3.67;;;12.80;99.90;;;;;;5071349;28;20115;-76
2023/05/23 03:01:09;;;;;;;12.05;3.80;;;12.80;99.90;;;;;;4985785;28;20076;-77
2023/05/23 03:03:35;;;;;;;11.93;4.00;;;12.70;99.90;;;;;;5040039;28;20064;-76
2023/05/23 03:06:05;;;;;;;11.90;4.22;;;12.70;99.90;;;;;;5021161;28;20045;-74
2023/05/23 03:08:30;;;;;;;10.07;4.03;;;12.70;99.90;;;;;;5037756;28;20058;-74
2023/05/23 03:10:56;;;;;;;8.55;3.45;;;12.70;99.90;;;;;;5024565;28;20049;-75
2023/05/23 03:13:22;;;;;;;9.10;3.90;;;12.60;99.90;;;;;;5030283;28;20048;-74
2023/05/23 03:15:48;;;;;;;11.13;4.10;;;12.60;99.90;;;;;;5038603;28;20053;-76
2023/05/23 03:18:15;;;;;;;13.27;4.05;;;12.60;99.90;;;;;;5007494;28;20053;-78
2023/05/23 03:20:41;;;;;;;15.65;3.97;;;12.60;99.90;;;;;;5037102;28;20057;-74
2023/05/23 03:23:07;;;;;;;9.68;3.70;;;12.50;99.90;;;;;;5007478;28;21001;-74
2023/05/23 03:25:32;;;;;;;12.63;4.15;;;12.50;99.90;;;;;;5039372;28;20044;-75
2023/05/23 03:27:59;;;;;;;9.27;3.47;;;12.40;99.90;;;;;;5039708;28;20835;-74
2023/05/23 03:30:25;;;;;;;8.55;4.00;;;12.40;99.90;;;;;;5038162;28;20052;-77
2023/05/23 03:32:52;;;;;;;13.20;4.30;;;12.40;99.90;;;;;;5019714;28;20480;-76
2023/05/23 03:35:24;;;;;;;10.93;4.63;;;12.40;99.90;;;;;;5008047;28;20102;-76
2023/05/23 03:37:50;;;;;;;10.70;3.85;;;12.40;99.90;;;;;;5038409;28;22091;-75
2023/05/23 03:40:17;;;;;;;12.68;5.00;;;12.30;99.90;;;;;;5003999;28;20120;-75
2023/05/23 03:42:42;;;;;;;15.30;4.32;;;12.30;99.90;;;;;;5039137;28;20396;-73
2023/05/23 03:45:08;;;;;;;14.88;5.05;;;12.30;99.90;;;;;;5038610;28;20060;-74
2023/05/23 03:47:34;;;;;;;11.57;4.80;;;12.30;99.90;;;;;;5053203;28;20567;-75
2023/05/23 03:50:03;;;;;;;13.98;5.30;;;12.00;99.90;;;;;;5021652;28;20486;-78
2023/05/23 03:52:29;;;;;;;16.67;5.18;;;11.80;99.90;;;;;;5039192;28;20048;-77
2023/05/23 03:54:54;;;;;;;12.90;4.65;;;12.30;99.90;;;;;;5040940;28;20064;-74
2023/05/23 03:57:21;;;;;;;9.10;4.13;;;12.30;99.90;;;;;;5023490;28;20377;-75
2023/05/23 03:59:53;;;;;;;13.35;4.75;;;12.20;99.90;;;;;;5006870;28;20115;-76
2023/05/23 04:02:19;;;;;;;16.30;5.18;;;12.20;99.90;;;;;;5053332;28;20056;-75
2023/05/23 04:04:45;;;;;;;14.65;5.10;;;12.20;99.90;;;;;;5038717;28;20450;-74
2023/05/23 04:07:11;;;;;;;13.50;5.32;;;12.20;99.90;;;;;;5037130;28;20456;-76
2023/05/23 04:09:37;;;;;;;12.63;5.05;;;12.10;99.90;;;;;;5037264;28;20060;-74
2023/05/23 04:12:03;;;;;;;14.88;5.30;;;12.10;99.90;;;;;;5037943;28;20045;-74
2023/05/23 04:14:29;;;;;;;12.50;4.80;;;12.10;99.90;;;;;;5038157;28;20087;-74
2023/05/23 04:16:54;;;;;;;12.48;5.20;;;12.00;99.90;;;;;;5038885;28;20076;-76
2023/05/23 04:19:26;;;;;;;17.58;5.63;;;12.00;99.90;;;;;;5070358;28;20086;-76
2023/05/23 04:21:51;;;;;;;13.93;4.65;;;12.00;99.90;;;;;;5037838;28;20061;-76
2023/05/23 04:24:18;;;;;;;10.95;4.75;;;12.00;99.90;;;;;;5055171;28;20108;-75
2023/05/23 04:26:43;;;;;;;13.65;4.75;;;12.00;99.90;;;;;;5037866;28;20044;-75
2023/05/23 04:29:11;;;;;;;13.40;5.00;;;12.00;99.90;;;;;;5054550;28;20056;-76
2023/05/23 04:31:37;;;;;;;10.27;4.30;;;12.00;99.90;;;;;;5039311;28;21353;-78
2023/05/23 04:34:02;;;;;;;11.48;4.65;;;12.40;99.90;;;;;;5000182;28;20094;-77
2023/05/23 04:36:29;;;;;;;9.73;4.30;;;11.90;99.90;;;;;;5034228;28;20045;-74
2023/05/23 04:38:55;;;;;;;16.92;4.60;;;11.90;99.90;;;;;;5038605;28;20049;-74
2023/05/23 04:41:23;;;;;;;12.27;5.15;;;11.90;99.90;;;;;;5041882;28;20064;-77
2023/05/23 04:43:57;;;;;;;9.80;3.95;;;11.90;99.90;;;;;;5011295;28;20051;-75
2023/05/23 04:46:25;;;;;;;15.70;4.70;;;11.90;99.90;;;;;;5021201;28;20049;-74
2023/05/23 04:48:53;;;;;;;11.32;4.00;;;11.90;99.90;;;;;;5035128;28;20076;-75
2023/05/23 04:51:20;;;;;;;13.18;4.03;;;11.90;99.90;;;;;;5037840;28;20064;-76
2023/05/23 04:53:48;;;;;;;16.20;4.10;;;11.90;99.90;;;;;;5035677;28;20045;-75
2023/05/23 04:56:16;;;;;;;12.27;3.60;;;11.90;99.90;;;;;;5054015;28;20067;-75
2023/05/23 04:58:44;;;;;;;12.43;3.30;;;11.90;99.90;;;;;;5034081;28;20052;-78
2023/05/23 05:01:10;;;;;;;9.07;3.45;;;11.90;99.90;;;;;;5036746;28;20053;-76
2023/05/23 05:03:37;;;;;;;12.27;3.03;;;11.80;99.90;;;;;;5021915;28;20090;-78
2023/05/23 05:06:09;;;;;;;12.20;3.72;;;11.80;99.90;;;;;;5036731;28;20053;-74
2023/05/23 05:08:36;;;;;;;13.07;3.53;;;12.20;99.90;;;;;;5035046;28;20053;-78
2023/05/23 05:11:02;;;;;;;9.70;2.83;;;11.80;99.90;;;;;;5011524;28;20041;-75
2023/05/23 05:13:29;;;;;;;13.57;3.55;;;11.80;99.90;;;;;;5053424;28;20423;-77
2023/05/23 05:16:02;;;;;;;14.27;3.97;;;11.90;99.90;;;;;;5005056;28;20107;-78
2023/05/23 05:18:29;;;;;;;15.73;3.50;;;11.90;99.90;;;;;;5053919;28;20084;-77
2023/05/23 05:20:55;;;;;;;15.13;3.47;;;11.90;99.90;;;;;;4987241;28;20049;-77
2023/05/23 05:23:27;;;;;;;15.48;3.15;;;11.90;99.90;;;;;;5037815;28;20049;-79
2023/05/23 05:25:55;;;;;;;15.77;3.47;;;11.90;99.90;;;;;;5020249;28;20041;-76
2023/05/23 05:28:26;;;;;;;14.65;3.17;;;11.90;99.90;;;;;;5051725;28;20403;-76
2023/05/23 05:30:54;;;;;;;10.18;3.30;;;11.90;99.90;;;;;;5022140;28;20059;-79
2023/05/23 05:33:23;;;;;;;13.20;3.17;;;12.00;99.90;;;;;;5035951;28;20077;-74
2023/05/23 05:35:52;;;;;;;13.90;3.22;;;12.00;99.90;;;;;;5071172;28;20037;-77
2023/05/23 05:38:18;;;;;;;11.40;3.08;;;12.00;99.90;;;;;;5041708;28;20041;-77
2023/05/23 05:40:44;;;;;;;14.80;3.55;;;12.00;99.90;;;;;;5039048;28;20053;-76
2023/05/23 05:43:11;;;;;;;14.63;3.85;;;12.10;99.90;;;;;;5041654;28;20507;-76
2023/05/23 05:45:38;;;;;;;15.52;3.75;;;12.30;99.90;;;;;;5040630;28;20092;-77
2023/05/23 05:48:15;;;;;;;15.55;3.50;;;12.40;99.90;;;;;;5036442;28;20518;-78
2023/05/23 05:51:26;;;;;;;17.30;4.38;;;12.10;99.90;;;;;;5052874;28;20068;-79
2023/05/23 05:53:52;;;;;;;16.80;3.83;;;12.60;99.90;;;;;;5054899;28;20099;-79
2023/05/23 05:56:19;;;;;;;16.25;3.38;;;12.50;99.90;;;;;;5033340;28;20464;-78
2023/05/23 05:58:45;;;;;;;14.05;3.10;;;12.60;99.90;;;;;;5025342;28;20096;-77
2023/05/23 06:01:13;;;;;;;14.00;3.65;;;12.60;99.90;;;;;;5016934;28;20135;-75
2023/05/23 06:03:39;;;;;;;18.30;3.70;;;12.70;99.90;;;;;;5005457;28;20059;-77
2023/05/23 06:06:05;;;;;;;14.80;3.85;;;12.70;99.90;;;;;;5040804;28;20078;-75
2023/05/23 06:08:31;;;;;;;14.35;3.60;;;12.70;99.90;;;;;;5023399;28;20056;-75
2023/05/23 06:10:57;;;;;;;13.48;3.33;;;12.70;99.90;;;;;;5037539;28;20048;-77
2023/05/23 06:13:22;;;;;;;23.10;4.47;;;12.70;99.90;;;;;;5023582;28;20040;-76
2023/05/23 06:15:59;;;;;;;14.75;3.33;;;12.80;99.90;;;;;;5054953;28;20187;-77
2023/05/23 06:18:26;;;;;;;15.27;3.90;;;12.90;99.90;;;;;;5059276;28;20044;-76
2023/05/23 06:20:52;;;;;;;15.15;3.60;;;13.00;99.90;;;;;;5044585;28;20839;-76
2023/05/23 06:23:18;;;;;;;15.18;3.33;;;12.20;99.90;;;;;;5027300;28;20128;-76
2023/05/23 06:25:44;;;;;;;15.05;3.35;;;13.10;99.90;;;;;;5040567;28;20053;-76
2023/05/23 06:28:16;;;;;;;15.00;3.13;;;13.50;99.90;;;;;;5025089;28;20040;-76
2023/05/23 06:30:48;;;;;;;13.88;4.00;;;13.20;99.90;;;;;;5043764;28;20779;-77
2023/05/23 06:33:15;;;;;;;18.33;3.50;;;13.30;99.90;;;;;;5076203;28;20500;-76
2023/05/23 06:35:44;;;;;;;17.65;3.92;;;13.40;99.90;;;;;;5033059;28;20044;-76
2023/05/23 06:38:12;;;;;;;16.30;2.97;;;13.40;99.90;;;;;;5026042;28;20079;-76
2023/05/23 06:40:40;;;;;;;15.43;3.60;;;13.50;99.90;;;;;;5033865;28;20041;-76
2023/05/23 06:43:07;;;;;;;20.75;3.85;;;13.50;99.90;;;;;;5025952;28;20039;-75
2023/05/23 06:45:34;;;;;;;16.95;3.45;;;13.50;99.90;;;;;;5006243;28;20041;-76
2023/05/23 06:48:00;;;;;;;15.18;3.33;;;13.40;99.90;;;;;;5060041;28;20041;-75
2023/05/23 06:50:26;;;;;;;20.15;3.78;;;13.30;99.90;;;;;;5049062;28;20111;-77
2023/05/23 06:52:59;;;;;;;10.98;3.03;;;13.40;99.90;;;;;;5025361;28;20094;-77
2023/05/23 06:55:32;;;;;;;14.68;3.38;;;13.50;99.90;;;;;;5041505;28;20127;-75
2023/05/23 06:57:59;;;;;;;13.85;3.60;;;13.50;99.90;;;;;;5044860;28;20090;-76
2023/05/23 07:00:25;;;;;;;12.13;2.75;;;13.50;99.90;;;;;;5030342;28;20052;-76
2023/05/23 07:03:00;;;;;;;15.25;3.75;;;13.50;99.90;;;;;;5064467;28;20088;-77
2023/05/23 07:05:28;;;;;;;17.92;3.75;;;13.50;99.90;;;;;;5030303;28;20059;-76
2023/05/23 07:07:54;;;;;;;17.92;3.83;;;13.50;99.90;;;;;;5057466;28;20049;-73
2023/05/23 07:10:21;;;;;;;14.98;3.60;;;13.60;99.90;;;;;;5026231;28;20392;-75
2023/05/23 07:12:47;;;;;;;14.48;2.92;;;13.70;99.90;;;;;;5037024;28;20045;-74
2023/05/23 07:15:13;;;;;;;17.08;3.50;;;13.80;99.90;;;;;;5024634;28;20530;-76
2023/05/23 07:17:39;;;;;;;14.32;4.13;;;13.90;99.90;;;;;;5025411;28;20380;-78
2023/05/23 07:20:09;;;;;;;14.02;3.50;;;14.00;99.90;;;;;;5040987;28;20052;-83
2023/05/23 07:22:34;;;;;;;20.33;4.43;;;14.10;99.90;;;;;;5063309;28;20048;-75
2023/05/23 07:25:00;;;;;;;14.75;3.30;;;14.30;99.90;;;;;;5048569;28;20106;-76
2023/05/23 07:27:26;;;;;;;13.90;3.53;;;14.50;99.90;;;;;;5045737;28;20087;-76
2023/05/23 07:29:52;;;;;;;13.10;3.63;;;14.70;99.90;;;;;;5029665;28;20519;-77
2023/05/23 07:32:18;;;;;;;16.13;3.17;;;14.80;99.90;;;;;;5047326;28;20084;-79
2023/05/23 07:34:44;;;;;;;16.33;3.33;;;14.80;99.90;;;;;;5042152;28;20405;-75
2023/05/23 07:37:10;;;;;;;11.75;3.33;;;14.90;99.90;;;;;;5041631;28;20110;-77
2023/05/23 07:39:35;;;;;;;11.68;3.22;;;14.90;99.90;;;;;;5058451;28;20048;-77
2023/05/23 07:42:04;;;;;;;12.90;3.67;;;14.90;99.90;;;;;;5026133;28;20566;-78
2023/05/23 07:44:30;;;;;;;14.48;3.35;;;15.10;99.90;;;;;;5025133;28;20637;-80
2023/05/23 07:47:05;;;;;;;16.45;3.53;;;15.40;99.90;;;;;;5042766;28;20103;-77
2023/05/23 07:50:15;;;;;;;10.50;2.78;;;15.50;99.90;;;;;;5017832;28;20511;-79
2023/05/23 07:55:39;;;;;;;11.38;3.65;;;15.40;99.90;;;;;;5029602;28;20075;-78
2023/05/23 07:58:20;;;;;;;12.10;3.38;;;15.50;99.90;;;;;;5045943;28;20543;-76
2023/05/23 08:00:52;;;;;;;12.80;3.00;;;15.60;99.90;;;;;;5047541;28;20132;-77
2023/05/23 08:03:18;;;;;;;12.70;3.03;;;14.50;99.90;;;;;;5047485;28;20044;-78
2023/05/23 08:06:06;;;;;;;11.15;3.28;;;15.70;99.90;;;;;;5029175;28;20047;-76
2023/05/23 08:08:58;;;;;;;;;;;15.10;99.90;;;;;;5047428;28;20105;-77
2023/05/23 08:11:35;;;;;;;12.55;3.38;;;15.80;99.90;;;;;;5032674;28;20378;-75
2023/05/23 08:14:09;;;;;;;12.35;3.25;;;15.80;99.90;;;;;;5029616;28;20045;-76
2023/05/23 08:16:36;;;;;;;11.82;2.90;;;16.00;99.90;;;;;;5028856;28;20099;-76
2023/05/23 08:19:11;;;;;;;14.63;3.40;;;16.10;99.90;;;;;;5029579;28;20098;-76
2023/05/23 08:21:40;;;;;;;12.15;3.28;;;16.10;99.90;;;;;;5030230;28;20053;-77
2023/05/23 08:24:29;;;;;;;15.88;4.00;;;16.10;99.90;;;;;;5046392;28;20052;-77
2023/05/23 08:27:08;;;;;;;12.98;2.95;;;16.00;99.90;;;;;;5044406;28;20419;-77
2023/05/23 08:29:57;;;;;;;12.70;2.63;;;15.90;99.90;;;;;;5029447;28;20070;-77
2023/05/23 08:32:27;;;;;;;15.60;4.03;;;15.80;99.90;;;;;;5045411;28;20455;-76
2023/05/23 08:34:57;;;;;;;18.25;3.80;;;15.90;99.90;;;;;;5046504;28;20045;-79
2023/05/23 08:37:27;;;;;;;12.45;3.05;;;15.90;99.90;;;;;;5041798;28;20140;-75
2023/05/23 08:40:19;;;;;;;16.05;3.22;;;15.90;99.90;;;;;;5047295;28;20136;-77
2023/05/23 08:42:51;;;;;;;14.82;3.30;;;16.00;99.90;;;;;;5026123;28;20052;-79
2023/05/23 08:45:20;;;;;;;10.77;3.00;;;16.10;99.90;;;;;;5013324;28;20546;-77
2023/05/23 08:48:18;;;;;;;19.25;3.40;;;16.30;99.90;;;;;;5044184;28;20049;-77
2023/05/23 08:51:12;;;;;;;14.45;2.90;;;15.80;99.90;;;;;;5046502;28;20124;-76
2023/05/23 08:54:02;;;;;;;15.52;2.78;;;16.00;99.90;;;;;;5033411;28;20140;-75
2023/05/23 08:56:36;;;;;;;12.48;2.92;;;15.80;99.90;;;;;;5045622;28;20557;-76
2023/05/23 09:02:35;;;;;;;15.98;3.47;;;15.70;99.90;;;;;;5047531;28;20068;-76
2023/05/23 09:05:17;;;;;;;12.40;2.88;;;15.70;99.90;;;;;;5018965;28;20131;-75
2023/05/23 09:08:39;;;;;;;10.35;3.03;;;15.70;99.90;;;;;;5044096;28;20048;-76
2023/05/23 09:11:44;;;;;;;11.77;3.05;;;15.70;99.90;;;;;;5051787;28;20415;-76
2023/05/23 09:14:25;;;;;;;17.30;3.63;;;15.80;99.90;;;;;;5000383;28;20053;-75
2023/05/23 09:17:18;;;;;;;13.27;3.05;;;15.80;99.90;;;;;;5050564;28;20098;-76
2023/05/23 09:20:26;;;;;;;15.18;3.38;;;15.80;99.90;;;;;;5050854;28;20489;-76
2023/05/23 09:23:00;;;;;;;13.25;3.53;;;16.30;99.90;;;;;;5051618;28;20051;-75
2023/05/23 09:25:46;;;;;;;12.70;2.75;;;16.60;99.90;;;;;;5051234;28;20059;-76
2023/05/23 09:31:29;;;;;;;14.30;3.20;;;16.90;99.90;;;;;;5050834;28;20075;-77
2023/05/23 09:33:59;;;;;;;12.43;3.15;;;17.00;99.90;;;;;;5049529;28;20061;-76
2023/05/23 09:36:40;;;;;;;13.45;3.42;;;18.20;99.90;;;;;;5048674;28;20207;-77
2023/05/23 09:39:22;;;;;;;12.32;3.38;;;17.80;99.90;;;;;;5015502;28;20720;-76
2023/05/23 09:41:59;;;;;;;14.10;2.97;;;17.90;99.90;;;;;;5041398;28;20056;-79
2023/05/23 09:44:42;;;;;;;17.05;3.47;;;18.20;99.90;;;;;;5049110;28;20056;-77
2023/05/23 09:50:07;;;;;;;13.70;2.60;;;18.50;99.90;;;;;;5032252;28;20076;-77
2023/05/23 09:52:55;;;;;;;13.52;2.92;;;18.80;99.90;;;;;;5033961;28;20056;-77
2023/05/23 09:55:23;;;;;;;11.00;3.25;;;18.80;99.90;;;;;;5031893;28;20076;-78
2023/05/23 09:58:00;;;;;;;13.98;3.22;;;18.60;99.90;;;;;;5049020;28;20061;-76
2023/05/23 10:00:27;;;;;;;12.43;3.95;;;18.30;99.90;;;;;;5048356;28;20053;-76
2023/05/23 10:03:02;;;;;;;11.63;3.10;;;18.00;99.90;;;;;;5048224;28;20079;-76
2023/05/23 10:05:45;;;;;;;18.70;3.40;;;17.70;99.90;;;;;;5049263;28;20076;-76
2023/05/23 10:08:43;;;;;;;12.02;2.78;;;17.40;99.90;;;;;;5048389;28;20415;-75
2023/05/23 10:12:11;;;;;;;12.32;2.90;;;17.40;99.90;;;;;;5048213;28;20106;-77
2023/05/23 10:14:58;;;;;;;11.80;2.75;;;17.50;99.90;;;;;;5063232;28;20128;-75
2023/05/23 10:18:01;;;;;;;12.75;2.67;;;17.60;99.90;;;;;;5032710;28;20052;-76
2023/05/23 10:20:37;;;;;;;11.82;3.08;;;17.60;99.90;;;;;;5050007;28;20488;-75
2023/05/23 10:23:16;;;;;;;11.90;2.75;;;17.60;99.90;;;;;;5049135;28;20122;-77
2023/05/23 10:25:43;;;;;;;13.85;3.03;;;17.50;99.90;;;;;;5033985;28;20560;-76
2023/05/23 10:28:18;;;;;;;10.55;2.78;;;16.40;99.90;;;;;;5035339;28;20067;-75
2023/05/23 10:30:49;;;;;;;9.95;3.17;;;17.20;99.90;;;;;;5019373;28;20048;-76
2023/05/23 10:33:35;;;;;;;13.20;2.90;;;17.20;99.90;;;;;;5052019;28;20060;-75
2023/05/23 10:36:40;;;;;;;9.52;2.78;;;17.50;99.90;;;;;;5067588;28;20045;-76
2023/05/23 10:39:54;;;;;;;13.25;2.80;;;16.90;99.90;;;;;;5046238;28;20063;-76
2023/05/23 10:43:18;;;;;;;14.52;3.78;;;16.70;99.90;;;;;;5050233;28;20055;-77
2023/05/23 10:45:55;;;;;;;9.52;2.92;;;16.70;99.90;;;;;;5048431;28;20046;-76
2023/05/23 10:48:42;;;;;;;9.82;2.95;;;16.60;99.90;;;;;;5048291;28;20056;-75
2023/05/23 10:51:14;;;;;;;12.60;3.08;;;16.50;99.90;;;;;;5050075;28;20091;-76
2023/05/23 10:53:43;;;;;;;8.27;2.78;;;16.70;99.90;;;;;;5048452;28;20057;-76
2023/05/23 10:56:24;;;;;;;16.52;3.08;;;16.80;99.90;;;;;;5019298;28;20053;-76
2023/05/23 10:58:57;;;;;;;12.07;3.00;;;16.80;99.90;;;;;;5032324;28;20052;-75
2023/05/23 11:01:38;;;;;;;13.05;2.72;;;17.00;99.90;;;;;;5014051;28;20096;-76
2023/05/23 11:04:33;;;;;;;10.10;2.60;;;17.20;99.90;;;;;;5064492;28;20067;-76
2023/05/23 11:07:01;;;;;;;11.43;2.60;;;17.30;99.90;;;;;;5031120;28;20470;-77
2023/05/23 11:10:23;;;;;;;10.35;2.60;;;17.60;99.90;;;;;;5047568;28;20036;-76
2023/05/23 11:12:49;;;;;;;10.15;2.85;;;18.00;99.90;;;;;;5049575;28;20060;-76
2023/05/23 11:15:41;;;;;;;12.45;2.90;;;18.10;99.90;;;;;;5056766;28;20060;-76
2023/05/23 11:18:33;;;;;;;11.75;2.67;;;17.90;99.90;;;;;;5049119;28;20127;-76
2023/05/23 11:21:23;;;;;;;10.98;2.78;;;17.90;99.90;;;;;;5049416;28;20125;-77
2023/05/23 11:23:54;;;;;;;13.50;2.42;;;18.20;99.90;;;;;;5049522;28;20052;-75
2023/05/23 11:26:39;;;;;;;8.23;2.67;;;18.50;99.90;;;;;;5047438;28;20057;-76
2023/05/23 11:29:22;;;;;;;13.88;2.60;;;18.90;99.90;;;;;;5047908;28;20067;-76
2023/05/23 11:32:02;;;;;;;11.05;2.50;;;19.30;99.90;;;;;;5046659;28;20080;-76
2023/05/23 11:34:45;;;;;;;9.75;2.60;;;19.50;99.90;;;;;;5031344;28;20057;-77
2023/05/23 11:37:22;;;;;;;11.18;2.40;;;19.80;99.70;;;;;;5030306;28;20063;-76
2023/05/23 11:40:02;;;;;;;9.85;2.47;;;20.10;98.90;;;;;;5032265;28;20110;-76
2023/05/23 11:42:32;;;;;;;14.63;3.30;;;20.60;98.70;;;;;;5047336;28;20057;-76
2023/05/23 11:45:08;;;;;;;11.35;2.70;;;20.60;97.30;;;;;;5047651;28;20041;-76
2023/05/23 11:47:40;;;;;;;9.63;2.65;;;20.90;97.10;;;;;;5047508;28;20057;-76
2023/05/23 11:50:14;;;;;;;17.10;2.63;;;21.20;95.70;;;;;;5064369;28;20723;-77
2023/05/23 11:52:50;;;;;;;13.05;2.63;;;21.40;95.80;;;;;;5046942;28;20586;-77
2023/05/23 11:55:21;;;;;;;11.52;2.70;;;21.70;94.60;;;;;;5047184;28;20128;-75
2023/05/23 11:58:08;;;;;;;10.20;2.60;;;21.80;93.70;;;;;;5014598;28;20573;-76
2023/05/23 12:01:21;;;;;;;8.95;2.22;;;21.60;93.40;;;;;;5027745;28;20060;-76
2023/05/23 12:06:33;;;;;;;;;;;21.40;93.40;;;;;;5041323;28;20399;-76
2023/05/23 12:09:30;;;;;;;10.13;2.42;;;20.70;90.90;;;;;;5060546;28;19936;-76
2023/05/23 12:12:21;;;;;;;10.30;2.45;;;21.30;90.50;;;;;;5045231;28;20061;-76
2023/05/23 12:15:12;;;;;;;10.35;2.40;;;21.40;91.00;;;;;;5056332;28;20053;-78
2023/05/23 12:17:46;;;;;;;7.63;1.98;;;21.40;91.80;;;;;;5040273;28;20081;-75
2023/05/23 12:20:14;;;;;;;9.20;2.20;;;21.30;91.10;;;;;;5016259;28;20056;-78
2023/05/23 12:22:41;;;;;;;11.75;2.25;;;20.20;90.70;;;;;;5007080;28;20071;-76
2023/05/23 12:25:11;;;;;;;11.85;2.30;;;20.90;90.40;;;;;;5041456;28;20084;-76
2023/05/23 12:27:42;;;;;;;8.52;2.30;;;20.60;90.90;;;;;;5039822;28;20083;-76
2023/05/23 12:30:12;;;;;;;9.65;2.00;;;20.70;91.30;;;;;;5041762;28;20130;-76
2023/05/23 12:32:43;;;;;;;8.63;2.63;;;20.50;90.70;;;;;;5058251;28;20048;-76
2023/05/23 12:35:13;;;;;;;11.60;2.70;;;20.30;91.10;;;;;;5025151;28;20488;-78
2023/05/23 12:37:41;;;;;;;7.85;2.67;;;20.20;91.70;;;;;;5009037;28;20041;-78
2023/05/23 12:40:17;;;;;;;9.73;2.50;;;20.10;91.90;;;;;;5041467;28;20106;-77
2023/05/23 12:42:56;;;;;;;8.27;2.10;;;20.20;91.60;;;;;;5056917;28;20045;-77
2023/05/23 12:45:30;;;;;;;9.30;2.28;;;20.30;91.50;;;;;;5041087;28;21217;-77
2023/05/23 12:47:56;;;;;;;8.25;2.00;;;20.70;91.50;;;;;;5041285;28;20522;-79
2023/05/23 12:50:25;;;;;;;7.97;2.25;;;21.10;90.80;;;;;;5041424;28;20474;-75
2023/05/23 12:52:53;;;;;;;10.88;2.50;;;21.30;89.80;;;;;;5055344;28;20044;-76
2023/05/23 12:55:19;;;;;;;8.07;2.05;;;21.20;88.20;;;;;;5039359;28;20071;-75
2023/05/23 12:57:58;;;;;;;7.82;1.92;;;20.90;87.20;;;;;;5007150;28;20526;-75
2023/05/23 13:00:43;;;;;;;10.23;2.20;;;21.80;87.20;;;;;;5038419;28;20143;-74
2023/05/23 13:03:20;;;;;;;7.38;2.25;;;21.90;82.60;;;;;;5035867;28;20067;-73
2023/05/23 13:05:54;;;;;;;8.00;2.20;;;22.20;85.00;;;;;;4986554;28;20114;-75
2023/05/23 13:08:44;;;;;;;10.50;2.38;;;21.40;82.80;;;;;;4960337;28;20130;-74
2023/05/23 13:11:10;;;;;;;11.13;2.38;;;21.20;84.10;;;;;;5006915;28;20231;-74
2023/05/23 13:13:44;;;;;;;8.18;2.30;;;20.90;84.70;;;;;;5007865;28;20059;-74
2023/05/23 13:16:10;;;;;;;9.68;2.38;;;21.00;86.10;;;;;;4980961;28;20056;-74
2023/05/23 13:18:42;;;;;;;7.28;1.98;;;21.10;85.30;;;;;;5023574;28;20056;-74
2023/05/23 13:21:35;;;;;;;10.45;2.28;;;20.90;85.70;;;;;;5022034;28;20060;-74
2023/05/23 13:24:30;;;;;;;8.77;2.85;;;20.90;86.40;;;;;;5025554;28;20068;-82